createdAt,value
2023-04-23T00:04:52.753Z,21.00
2023-04-23T00:09:57.659Z,20.50
2023-04-23T00:15:00.457Z,20.40
2023-04-23T00:20:03.131Z,18.10
2023-04-23T00:25:05.789Z,20.80
2023-04-23T00:30:09.254Z,21.30
2023-04-23T00:35:11.060Z,21.90
2023-04-23T00:40:13.736Z,24.70
2023-04-23T00:45:16.916Z,24.70
2023-04-23T00:50:20.827Z,22.90
2023-04-23T00:55:23.096Z,26.50
2023-04-23T01:00:25.310Z,27.60
2023-04-23T01:05:27.953Z,28.60
2023-04-23T01:10:32.813Z,26.30
2023-04-23T01:15:34.875Z,28.70
2023-04-23T01:20:38.161Z,26.10
2023-04-23T01:25:40.994Z,26.20
2023-04-23T01:30:44.369Z,23.90
2023-04-23T01:35:47.624Z,26.60
2023-04-23T01:40:49.731Z,25.60
2023-04-23T01:45:52.936Z,25.90
2023-04-23T01:50:55.272Z,22.80
2023-04-23T01:56:00.868Z,23.40
2023-04-23T02:01:02.943Z,25.20
2023-04-23T02:06:05.356Z,24.60
2023-04-23T02:11:07.409Z,27.20
2023-04-23T02:16:09.410Z,26.40
2023-04-23T02:21:13.453Z,25.10
2023-04-23T02:26:15.929Z,25.30
2023-04-23T02:31:18.843Z,26.90
2023-04-23T02:36:20.754Z,25.30
2023-04-23T02:41:22.831Z,26.00
2023-04-23T02:46:24.633Z,26.50
2023-04-23T02:51:27.484Z,27.20
2023-04-23T02:56:30.826Z,27.20
2023-04-23T03:01:32.938Z,25.30
2023-04-23T03:06:35.911Z,27.40
2023-04-23T03:11:38.529Z,28.00
2023-04-23T03:16:41.207Z,29.10
2023-04-23T03:21:43.749Z,29.10
2023-04-23T03:26:45.703Z,30.10
2023-04-23T03:31:47.628Z,28.10
2023-04-23T03:36:50.903Z,27.00
2023-04-23T03:41:53.577Z,28.20
2023-04-23T03:46:59.046Z,24.90
2023-04-23T03:52:01.377Z,28.10
2023-04-23T03:57:04.845Z,25.30
2023-04-23T04:02:12.138Z,27.00
2023-04-23T04:07:14.286Z,27.30
2023-04-23T04:12:16.758Z,27.10
2023-04-23T04:17:18.594Z,25.30
2023-04-23T04:22:20.927Z,26.20
2023-04-23T04:27:22.878Z,25.80
2023-04-23T04:32:24.819Z,26.30
2023-04-23T04:37:26.587Z,26.10
2023-04-23T04:42:28.889Z,24.50
2023-04-23T04:47:31.367Z,25.30
2023-04-23T04:52:33.524Z,27.80
2023-04-23T04:57:36.961Z,25.50
2023-04-23T05:02:39.252Z,25.50
2023-04-23T05:07:41.159Z,25.40
2023-04-23T05:12:43.772Z,26.20
2023-04-23T05:17:45.587Z,27.10
2023-04-23T05:22:48.639Z,26.50
2023-04-23T05:27:51.270Z,25.50
2023-04-23T05:32:53.421Z,25.80
2023-04-23T05:37:55.347Z,27.20
2023-04-23T05:42:58.705Z,25.90
2023-04-23T05:48:00.606Z,24.80
2023-04-23T05:53:03.081Z,23.90
2023-04-23T05:58:05.944Z,22.40
2023-04-23T06:03:08.218Z,19.90
2023-04-23T06:08:10.399Z,15.90
2023-04-23T06:13:12.534Z,13.60
2023-04-23T06:18:14.487Z,12.50
2023-04-23T06:23:17.610Z,13.40
2023-04-23T06:28:19.585Z,13.50
2023-04-23T06:33:50.974Z,13.70
2023-04-23T06:38:52.826Z,12.20
2023-04-23T06:43:55.277Z,15.10
2023-04-23T06:49:06.997Z,12.20
2023-04-23T06:54:09.069Z,13.20
2023-04-23T06:59:11.880Z,12.10
2023-04-23T07:04:22.230Z,14.00
2023-04-23T07:09:24.501Z,12.50
2023-04-23T07:14:26.665Z,10.50
2023-04-23T07:19:28.471Z,8.70
2023-04-23T07:24:30.942Z,9.80
2023-04-23T07:29:34.292Z,8.10
2023-04-23T07:34:39.480Z,10.10
2023-04-23T07:39:44.025Z,12.00
2023-04-23T07:44:46.484Z,16.80
2023-04-23T07:49:48.360Z,8.30
2023-04-23T07:54:50.462Z,8.10
2023-04-23T07:59:52.953Z,8.00
2023-04-23T08:04:55.489Z,6.70
2023-04-23T08:10:02.866Z,7.70
2023-04-23T08:15:06.020Z,6.60
2023-04-23T08:20:14.058Z,9.10
2023-04-23T08:25:16.569Z,5.70
2023-04-23T08:30:18.518Z,5.40
2023-04-23T08:35:20.705Z,5.80
2023-04-23T08:40:22.952Z,7.10
2023-04-23T08:45:26.273Z,5.80
2023-04-23T08:50:29.339Z,6.10
2023-04-23T08:55:33.852Z,5.60
2023-04-23T09:00:36.112Z,4.20
2023-04-23T09:05:38.186Z,5.90
2023-04-23T09:10:42.258Z,3.60
2023-04-23T09:15:44.535Z,3.30
2023-04-23T09:20:47.042Z,5.70
2023-04-23T09:25:50.094Z,3.60
2023-04-23T09:30:53.251Z,3.50
2023-04-23T09:35:55.471Z,3.50
2023-04-23T09:40:57.556Z,3.70
2023-04-23T09:45:59.692Z,4.90
2023-04-23T09:51:02.288Z,4.80
2023-04-23T09:56:04.454Z,4.40
2023-04-23T10:01:09.013Z,4.80
2023-04-23T10:06:36.893Z,5.00
2023-04-23T10:11:42.084Z,3.70
2023-04-23T10:16:49.283Z,5.60
2023-04-23T10:22:18.411Z,6.60
2023-04-23T10:27:33.337Z,4.10
2023-04-23T10:32:42.389Z,6.80
2023-04-23T10:37:48.451Z,7.00
2023-04-23T10:42:52.225Z,5.50
2023-04-23T10:47:57.378Z,5.50
2023-04-23T10:52:59.933Z,4.60
2023-04-23T10:58:04.712Z,5.60
2023-04-23T11:03:30.553Z,4.10
2023-04-23T11:08:35.422Z,4.20
2023-04-23T11:13:52.221Z,7.50
2023-04-23T11:19:05.277Z,6.60
2023-04-23T11:24:07.870Z,4.30
2023-04-23T11:29:14.535Z,4.60
2023-04-23T11:34:17.810Z,4.00
2023-04-23T11:39:27.072Z,4.70
2023-04-23T11:44:30.772Z,4.40
2023-04-23T11:49:33.085Z,4.10
2023-04-23T11:54:35.571Z,4.50
2023-04-23T11:59:38.111Z,5.90
2023-04-23T12:04:41.481Z,5.30
2023-04-23T12:09:46.211Z,3.30
2023-04-23T12:14:48.102Z,4.40
2023-04-23T12:19:51.142Z,4.90
2023-04-23T12:24:54.547Z,4.00
2023-04-23T12:30:04.214Z,4.20
2023-04-23T12:35:10.181Z,3.40
2023-04-23T12:40:12.841Z,3.00
2023-04-23T12:45:14.640Z,4.20
2023-04-23T12:50:17.024Z,4.90
2023-04-23T12:55:18.917Z,4.20
2023-04-23T13:00:21.148Z,5.70
2023-04-23T13:05:24.142Z,3.50
2023-04-23T13:10:26.452Z,3.60
2023-04-23T13:15:28.326Z,3.90
2023-04-23T13:20:30.912Z,4.00
2023-04-23T13:25:32.814Z,3.60
2023-04-23T13:30:35.157Z,4.50
2023-04-23T13:35:38.016Z,3.30
2023-04-23T13:40:40.051Z,4.00
2023-04-23T13:45:41.820Z,4.00
2023-04-23T13:50:44.766Z,4.40
2023-04-23T13:55:46.595Z,4.40
2023-04-23T14:00:48.718Z,4.60
2023-04-23T14:05:51.140Z,4.60
2023-04-23T14:10:53.168Z,6.00
2023-04-23T14:15:55.033Z,4.60
2023-04-23T14:20:57.294Z,4.50
2023-04-23T14:26:04.927Z,4.40
2023-04-23T14:31:08.000Z,3.90
2023-04-23T14:36:09.912Z,3.20
2023-04-23T14:41:12.061Z,3.20
2023-04-23T14:46:13.798Z,3.70
2023-04-23T14:51:16.165Z,3.20
2023-04-23T14:56:18.226Z,3.40
2023-04-23T15:01:20.440Z,5.20
2023-04-23T15:06:22.927Z,4.90
2023-04-23T15:11:25.114Z,3.90
2023-04-23T15:16:48.059Z,3.80
2023-04-23T15:21:51.161Z,7.10
2023-04-23T15:26:55.225Z,3.20
2023-04-23T15:31:58.940Z,3.90
2023-04-23T15:37:01.101Z,3.40
2023-04-23T15:42:03.486Z,4.40
2023-04-23T15:47:05.330Z,3.90
2023-04-23T15:52:07.387Z,4.80
2023-04-23T15:57:09.124Z,3.60
2023-04-23T16:02:11.273Z,3.00
2023-04-23T16:07:13.834Z,4.20
2023-04-23T16:12:16.617Z,3.00
2023-04-23T16:17:18.583Z,6.10
2023-04-23T16:22:20.722Z,4.30
2023-04-23T16:27:23.450Z,5.10
2023-04-23T16:32:26.036Z,5.30
2023-04-23T16:37:28.055Z,4.30
2023-04-23T16:42:29.988Z,5.80
2023-04-23T16:47:31.776Z,5.20
2023-04-23T16:52:33.849Z,3.80
2023-04-23T16:57:36.903Z,5.70
2023-04-23T17:02:43.697Z,4.90
2023-04-23T17:07:46.519Z,5.50
2023-04-23T17:12:53.961Z,6.30
2023-04-23T17:17:56.122Z,4.10
2023-04-23T17:22:58.523Z,3.90
2023-04-23T17:28:00.504Z,5.30
2023-04-23T17:33:02.768Z,5.40
2023-04-23T17:38:04.686Z,5.50
2023-04-23T17:43:07.130Z,4.80
2023-04-23T17:48:09.466Z,5.20
2023-04-23T17:53:11.808Z,8.40
2023-04-23T17:58:14.076Z,7.40
2023-04-23T18:03:18.706Z,5.80
2023-04-23T18:08:22.055Z,6.00
2023-04-23T18:13:24.551Z,7.20
2023-04-23T18:18:26.796Z,6.20
2023-04-23T18:23:29.301Z,5.30
2023-04-23T18:28:32.933Z,6.50
2023-04-23T18:33:49.293Z,6.00
2023-04-23T18:38:51.916Z,6.40
2023-04-23T18:43:54.168Z,6.10
2023-04-23T18:49:05.114Z,7.60
2023-04-23T18:54:07.264Z,7.70
2023-04-23T18:59:09.573Z,7.00
2023-04-23T19:04:11.766Z,25.40
2023-04-23T19:09:14.754Z,9.80
2023-04-23T19:14:19.051Z,10.10
2023-04-23T19:19:21.029Z,9.10
2023-04-23T19:24:23.112Z,9.20
2023-04-23T19:29:25.240Z,10.40
2023-04-23T19:34:27.859Z,12.60
2023-04-23T19:39:29.825Z,10.90
2023-04-23T19:44:31.832Z,13.70
2023-04-23T19:49:33.633Z,12.80
2023-04-23T19:54:35.789Z,14.00
2023-04-23T19:59:37.722Z,15.50
2023-04-23T20:04:40.074Z,14.10
2023-04-23T20:09:42.691Z,14.60
2023-04-23T20:14:45.013Z,14.90
2023-04-23T20:19:46.779Z,14.00
2023-04-23T20:24:48.971Z,15.90
2023-04-23T20:29:51.666Z,13.40
2023-04-23T20:34:54.757Z,17.50
2023-04-23T20:39:56.575Z,17.30
2023-04-23T20:44:59.130Z,14.90
2023-04-23T20:50:00.966Z,16.40
2023-04-23T20:55:03.558Z,16.80
2023-04-23T21:00:11.623Z,20.30
2023-04-23T21:05:13.855Z,20.80
2023-04-23T21:10:21.992Z,22.50
2023-04-23T21:15:44.660Z,28.70
2023-04-23T21:20:46.608Z,22.50
2023-04-23T21:25:48.687Z,22.50
2023-04-23T21:30:52.643Z,19.00
2023-04-23T21:35:54.924Z,20.90
2023-04-23T21:40:59.495Z,22.40
2023-04-23T21:46:02.146Z,26.10
2023-04-23T21:51:25.210Z,26.70
2023-04-23T21:56:27.258Z,36.40
2023-04-23T22:01:29.175Z,29.20
2023-04-23T22:06:31.287Z,36.90
2023-04-23T22:11:34.713Z,31.80
2023-04-23T22:16:37.347Z,29.40
2023-04-23T22:21:39.288Z,33.10
2023-04-23T22:26:41.277Z,33.90
2023-04-23T22:31:43.173Z,32.50
2023-04-23T22:36:45.709Z,33.10
2023-04-23T22:41:47.720Z,33.40
2023-04-23T22:46:50.435Z,32.70
2023-04-23T22:51:52.487Z,32.90
2023-04-23T22:56:54.481Z,34.20
2023-04-23T23:01:56.397Z,30.70
2023-04-23T23:06:58.570Z,31.70
2023-04-23T23:12:20.813Z,29.10
2023-04-23T23:17:24.801Z,28.80
2023-04-23T23:22:27.232Z,27.20
2023-04-23T23:27:29.592Z,26.50
2023-04-23T23:32:33.317Z,26.40
2023-04-23T23:37:36.160Z,28.90
2023-04-23T23:42:43.692Z,26.60
2023-04-23T23:47:48.331Z,27.30
2023-04-23T23:52:50.500Z,27.10
2023-04-23T23:57:52.498Z,24.80
